Latest Weather Observations for Hobart Airport

IDT60901

Issued at 7:41 am EST Monday 20 August 2018 (issued every 10 minutes, with the page automatically refreshed every 10 minutes)

About weather observations | Map of Hobart area stations | Latest observations for Hobart area | Other Formats
Station Details ID: 094008 Name: HOBART AIRPORT Lat: -42.83 Lon: 147.50 Height: 4.0 m
Data from the previous 72 hours. | See also: Recent months at Hobart Airport
Date/Time
EST
Temp
°C
App
Temp
°C
Dew
Point
°C
Rel
Hum
%
Delta-T
°C
Wind Press
QNH
hPa
Press
MSL
hPa
Rain since
9am
mm
Dir  Spd
km/h
Gust
km/h
Spd
kts
Gust
kts
20/07:30am 3.3 -2.5 -1.8 69 1.8 NNW 19 26 10 14 1017.1 1017.2 1.0
20/07:00am 3.1 -1.5 -1.4 72 1.6 NNW 13 19 7 10 1017.4 1017.5 1.0
20/06:30am 2.1 -2.2 -1.6 76 1.3 NNW 11 19 6 10 1017.5 1017.6 1.0
20/06:00am 2.8 -2.3 -2.0 71 1.7 NNW 15 24 8 13 1017.7 1017.8 1.0
20/05:30am 2.5 -2.1 -1.4 75 1.4 NNW 13 20 7 11 1018.2 1018.3 1.0
20/05:00am 2.3 -3.2 -2.0 73 1.5 NNW 17 26 9 14 1018.5 1018.6 1.0
20/04:30am 2.5 -3.0 -1.8 73 1.5 NW 17 22 9 12 1018.8 1018.9 1.0
20/04:00am 3.0 -2.5 -2.1 69 1.8 NW 17 26 9 14 1019.1 1019.2 1.0
20/03:30am 3.5 -1.9 -1.5 70 1.8 NW 17 24 9 13 1019.5 1019.6 1.0
20/03:00am 3.2 -1.9 -1.9 69 1.8 NW 15 26 8 14 1019.9 1020.0 1.0
20/02:30am 2.9 -2.1 -1.3 74 1.5 NNW 15 22 8 12 1020.2 1020.3 1.0
20/02:00am 3.6 -1.9 -2.4 65 2.1 WNW 17 22 9 12 1020.4 1020.5 1.0
20/01:30am 5.2 -0.4 -2.7 56 2.8 WSW 17 24 9 13 1020.5 1020.6 1.0
20/01:00am 5.1 0.2 -3.6 53 3.0 WSW 13 17 7 9 1020.5 1020.6 1.0
20/12:30am 4.7 -0.6 -3.8 54 2.9 WSW 15 19 8 10 1020.7 1020.8 1.0
20/12:00am 4.5 -0.8 -3.7 55 2.8 WSW 15 22 8 12 1020.9 1021.0 1.0
 
Date/Time
EST
Temp
°C
App
Temp
°C
Dew
Point
°C
Rel
Hum
%
Delta-T
°C
Wind Press
QNH
hPa
Press
MSL
hPa
Rain since
9am
mm
Dir  Spd
km/h
Gust
km/h
Spd
kts
Gust
kts
19/11:30pm 4.6 -0.7 -3.5 55 2.8 W 15 20 8 11 1020.9 1021.0 1.0
19/11:00pm 5.1 0.1 -3.9 52 3.1 W 13 20 7 11 1021.1 1021.2 1.0
19/10:30pm 5.3 -0.3 -3.3 54 3.0 WSW 17 22 9 12 1021.4 1021.5 1.0
19/10:00pm 5.7 0.1 -2.7 55 3.0 WSW 17 20 9 11 1021.6 1021.7 1.0
19/09:30pm 5.7 -0.2 -2.0 57 2.8 SW 19 30 10 16 1021.7 1021.8 1.0
19/09:00pm 6.0 -1.2 -2.3 55 3.0 SW 26 39 14 21 1021.4 1021.5 1.0
19/08:30pm 6.5 0.3 -3.4 49 3.5 SW 20 30 11 16 1021.4 1021.5 1.0
19/08:00pm 6.5 -1.3 -3.4 49 3.5 SW 28 37 15 20 1021.1 1021.2 1.0
19/07:30pm 6.3 -0.6 -2.9 52 3.3 SW 24 35 13 19 1020.9 1021.0 1.0
19/07:00pm 6.6 -1.5 -2.9 50 3.4 SW 30 41 16 22 1020.6 1020.7 1.0
19/06:30pm 6.7 -0.2 -2.3 52 3.3 SW 24 35 13 19 1020.2 1020.3 1.0
19/06:00pm 6.7 -1.1 -3.4 48 3.6 SW 28 41 15 22 1019.7 1019.8 1.0
19/05:30pm 6.6 0.5 -2.1 54 3.2 SSW 20 32 11 17 1019.3 1019.4 1.0
19/05:00pm 7.2 -0.8 -2.3 51 3.5 SW 30 41 16 22 1018.4 1018.5 1.0
19/04:42pm 7.0 -1.2 -1.2 56 3.1 SSW 32 50 17 27 1018.0 1018.1 1.0
19/04:30pm 7.3 -1.6 -1.8 52 3.4 SSW 35 52 19 28 1017.8 1017.9 1.0
19/04:07pm 7.6 -1.3 -2.1 50 3.6 SSW 35 57 19 31 1017.6 1017.7 1.0
19/04:00pm 7.8 -0.9 -0.8 54 3.3 SSW 35 50 19 27 1017.5 1017.6 1.0
19/03:32pm 7.8 0.1 0.2 58 3.0 SSW 30 48 16 26 1017.1 1017.2 1.0
19/03:30pm 7.8 0.2 0.5 60 2.9 SSW 30 44 16 24 1017.1 1017.2 1.0
19/03:01pm 7.9 -1.0 0.6 60 2.9 SW 37 56 20 30 1016.8 1016.9 1.0
19/03:00pm 8.0 -1.3 0.8 60 2.9 SW 39 56 21 30 1016.8 1016.9 1.0
19/02:30pm 8.5 -2.8 -1.5 49 3.8 SSW 48 67 26 36 1016.2 1016.3 1.0
19/02:19pm 8.4 -2.2 -1.9 48 3.9 SSW 44 63 24 34 1015.9 1015.9 1.0
19/02:00pm 8.9 -1.6 -1.2 49 3.9 SSW 44 61 24 33 1015.8 1015.8 1.0
19/01:34pm 8.7 -1.8 -2.9 44 4.3 SSW 43 61 23 33 1015.3 1015.3 1.0
19/01:30pm 8.6 -1.5 -2.4 46 4.1 SSW 41 57 22 31 1015.3 1015.3 1.0
19/01:27pm 8.5 -1.2 -2.5 46 4.1 SSW 39 57 21 31 1015.3 1015.3 1.0
19/01:00pm 8.2 -1.5 -2.2 48 3.9 SSW 39 54 21 29 1015.6 1015.6 1.0
19/12:44pm 8.7 -1.2 -1.2 50 3.8 SW 41 59 22 32 1015.6 1015.6 1.0
19/12:30pm 8.5 -1.3 -0.4 53 3.5 SW 41 57 22 31 1015.4 1015.4 1.0
19/12:00pm 7.7 -1.8 1.8 66 2.4 SW 41 59 22 32 1015.3 1015.3 1.0
19/11:30am 8.1 -1.1 1.2 62 2.8 SSW 39 57 21 31 1014.8 1014.8 1.0
19/11:02am 7.2 -1.8 2.4 71 2.0 SW 39 57 21 31 1014.8 1014.8 1.0
19/11:00am 7.9 -1.1 2.7 69 2.2 SW 39 54 21 29 1014.8 1014.8 1.0
19/10:30am 6.7 -0.5 2.9 77 1.6 SW 30 44 16 24 1014.5 1014.5 1.0
19/10:16am 6.2 -1.5 3.3 82 1.2 SW 33 43 18 23 1014.4 1014.4 1.0
19/10:00am 5.2 -3.7 2.8 84 1.0 SSW 39 52 21 28 1014.2 1014.2 0.8
19/09:56am 5.5 -3.1 2.8 83 1.1 SW 37 57 20 31 1014.2 1014.2 0.6
19/09:34am 7.4 -0.2 2.6 71 2.0 SSW 32 52 17 28 1013.4 1013.4 0.0
19/09:30am 6.6 -1.0 2.7 76 1.6 S 32 46 17 25 1013.2 1013.2 0.0
19/09:00am 6.6 -0.7 2.5 75 1.7 SSW 30 50 16 27 1012.9 1012.9 3.8
19/08:52am 6.3 -1.3 2.7 78 1.5 SSW 32 54 17 29 1012.6 1012.6 3.8
19/08:33am 7.1 -0.8 2.5 72 1.9 SSW 33 56 18 30 1012.0 1012.0 3.6
19/08:30am 7.8 0.0 2.0 67 2.4 SSW 32 46 17 25 1012.0 1012.0 3.2
19/08:02am 7.1 -1.7 1.4 67 2.3 SSW 37 56 20 30 1011.1 1011.1 3.2
19/08:00am 7.0 -2.1 1.6 68 2.2 SSW 39 56 21 30 1011.0 1011.0 3.2
19/07:39am 7.7 -1.1 1.3 64 2.6 SSW 37 59 20 32 1010.3 1010.3 3.2
19/07:30am 7.7 -0.3 1.6 65 2.5 SSW 33 46 18 25 1010.1 1010.1 3.2
19/07:15am 7.4 -0.9 2.3 70 2.1 SSW 35 54 19 29 1009.6 1009.6 3.2
19/07:00am 6.7 -2.4 4.1 83 1.1 SSW 41 56 22 30 1009.1 1009.1 3.2
19/06:30am 7.7 -0.4 3.2 73 1.9 S 35 54 19 29 1007.9 1007.9 3.0
19/06:25am 7.5 0.5 4.0 78 1.5 SSW 30 44 16 24 1007.7 1007.7 3.0
19/06:12am 6.4 -1.1 4.3 86 0.9 SSW 33 52 18 28 1007.3 1007.3 3.0
19/06:02am 6.2 0.3 4.1 86 0.9 SSW 24 37 13 20 1007.3 1007.3 2.8
19/06:00am 6.5 0.6 3.9 83 1.1 SSW 24 35 13 19 1007.4 1007.4 2.2
19/05:40am 6.8 -0.8 3.8 81 1.3 S 33 52 18 28 1007.0 1007.0 1.6
19/05:30am 6.6 -1.4 4.0 83 1.1 SSW 35 61 19 33 1006.7 1006.7 1.4
19/05:25am 6.2 -0.5 3.9 85 1.0 SW 28 61 15 33 1006.6 1006.6 1.4
19/05:20am 6.5 0.9 3.2 79 1.4 SW 22 32 12 17 1006.2 1006.2 0.8
19/05:00am 6.2 -1.0 2.8 79 1.4 SW 30 43 16 23 1005.6 1005.6 0.6
19/04:30am 7.2 0.9 1.6 67 2.3 SW 24 33 13 18 1005.1 1005.1 0.0
19/04:00am 7.1 1.2 2.0 70 2.1 SW 22 32 12 17 1004.3 1004.3 0.0
19/03:47am 7.2 0.9 1.3 66 2.4 SW 24 35 13 19 1004.2 1004.2 0.0
19/03:30am 5.4 1.2 1.7 77 1.5 W 13 17 7 9 1003.9 1003.9 0.0
19/03:00am 5.4 1.2 1.7 77 1.5 WNW 13 15 7 8 1003.4 1003.4 0.0
19/02:30am 4.3 0.4 1.0 79 1.3 NW 11 17 6 9 1003.3 1003.3 0.0
19/02:00am 4.7 0.1 1.7 81 1.2 WNW 15 19 8 10 1003.1 1003.1 0.0
19/01:30am 4.2 -0.5 0.9 79 1.3 WNW 15 17 8 9 1003.0 1003.0 0.0
19/01:00am 4.4 0.5 1.4 81 1.2 NW 11 13 6 7 1002.8 1002.8 0.0
19/12:30am 4.3 0.4 1.0 79 1.3 W 11 13 6 7 1002.6 1002.6 0.0
19/12:00am 4.8 1.3 1.5 79 1.3 WNW 9 11 5 6 1002.2 1002.2 0.0
 
Date/Time
EST
Temp
°C
App
Temp
°C
Dew
Point
°C
Rel
Hum
%
Delta-T
°C
Wind Press
QNH
hPa
Press
MSL
hPa
Rain since
9am
mm
Dir  Spd
km/h
Gust
km/h
Spd
kts
Gust
kts
18/11:30pm 5.9 3.0 1.7 74 1.7 NW 6 9 3 5 1002.1 1002.1 0.0
18/11:00pm 5.0 3.3 2.0 81 1.2 CALM 0 0 0 0 1001.8 1001.8 0.0
18/10:30pm 5.3 2.4 1.6 77 1.5 NW 6 7 3 4 1001.5 1001.5 0.0
18/10:00pm 5.2 2.7 1.4 76 1.5 N 4 7 2 4 1001.4 1001.4 0.0
18/09:30pm 5.8 2.0 1.6 74 1.7 WNW 11 15 6 8 1001.0 1001.0 0.0
18/09:00pm 5.9 1.6 0.8 70 2.0 W 13 15 7 8 1000.8 1000.8 0.0
18/08:30pm 6.3 2.0 1.0 69 2.1 NW 13 19 7 10 1000.5 1000.5 0.0
18/08:00pm 7.2 2.9 0.7 63 2.6 WNW 13 19 7 10 1000.1 1000.1 0.0
18/07:30pm 7.6 2.0 1.2 64 2.6 NW 20 26 11 14 999.8 999.8 0.0
18/07:00pm 7.2 2.2 1.3 66 2.4 NW 17 20 9 11 999.6 999.6 0.0
18/06:30pm 7.7 2.7 1.6 65 2.5 NW 17 24 9 13 999.4 999.4 0.0
18/06:00pm 8.7 2.3 1.2 59 3.1 NW 24 30 13 16 999.0 999.0 0.0
18/05:30pm 9.0 3.1 1.6 60 3.1 NNW 22 32 12 17 998.5 998.5 0.0
18/05:00pm 9.7 4.6 1.0 54 3.6 NW 17 22 9 12 998.2 998.2 0.0
18/04:30pm 10.4 3.3 -1.6 43 4.7 NW 26 35 14 19 997.8 997.8 0.0
18/04:00pm 11.1 4.5 -0.5 44 4.7 WNW 24 32 13 17 997.3 997.3 0.0
18/03:30pm 11.2 3.5 -0.3 45 4.6 NW 30 37 16 20 996.9 997.0 0.0
18/03:00pm 12.6 5.9 -1.2 38 5.6 WNW 24 33 13 18 997.1 997.2 0.0
18/02:30pm 12.2 3.9 -1.9 37 5.6 WNW 32 48 17 26 997.1 997.2 0.0
18/02:00pm 12.4 5.0 -0.5 41 5.3 NW 28 39 15 21 997.0 997.1 0.0
18/01:30pm 12.1 4.0 -0.6 41 5.1 NW 32 46 17 25 997.0 997.1 0.0
18/01:25pm 12.0 4.5 -1.1 40 5.2 NW 28 46 15 25 997.0 997.1 0.0
18/01:00pm 11.5 3.7 -0.9 42 5.0 NW 30 43 16 23 997.3 997.3 0.0
18/12:38pm 12.4 4.3 -0.1 42 5.1 NW 32 50 17 27 997.5 997.5 0.0
18/12:30pm 12.0 4.4 0.6 45 4.7 NW 30 39 16 21 997.8 997.8 0.0
18/12:00pm 11.4 5.4 1.2 49 4.3 NW 22 32 12 17 998.1 998.1 0.0
18/11:30am 10.9 4.1 1.1 51 4.1 NW 26 33 14 18 998.7 998.7 0.0
18/11:00am 11.0 5.5 1.6 52 4.0 NW 20 30 11 16 998.9 998.9 0.0
18/10:30am 10.7 6.1 1.8 54 3.8 NNW 15 26 8 14 999.0 999.0 0.0
18/10:00am 9.4 4.8 1.8 59 3.2 NNW 15 22 8 12 999.2 999.2 0.0
18/09:30am 9.3 4.4 2.2 61 3.0 NNW 17 22 9 12 999.4 999.4 0.0
18/09:00am 8.8 3.8 1.6 60 3.0 NNW 17 26 9 14 999.6 999.6 2.6
18/08:30am 8.1 3.2 2.1 66 2.5 NNW 17 24 9 13 999.6 999.6 2.6
18/08:00am 7.8 2.9 1.8 66 2.5 NNW 17 26 9 14 999.5 999.5 2.6
18/07:30am 7.1 2.2 1.7 68 2.2 NNW 17 26 9 14 999.1 999.1 2.6
18/07:00am 6.8 2.3 2.2 72 1.9 N 15 26 8 14 998.6 998.6 2.6
18/06:30am 7.1 1.8 2.8 74 1.8 NNW 20 30 11 16 998.2 998.2 2.6
18/06:00am 7.3 3.1 3.6 77 1.6 NNW 15 22 8 12 997.6 997.6 2.6
18/05:30am 8.2 4.5 2.5 67 2.4 NW 11 19 6 10 997.6 997.6 2.6
18/05:00am 8.2 4.2 4.8 79 1.5 NNW 15 20 8 11 997.4 997.4 2.6
18/04:30am 8.3 4.6 4.5 77 1.7 NNW 13 22 7 12 997.3 997.3 2.6
18/04:00am 8.5 4.8 4.2 74 1.9 NNW 13 19 7 10 996.5 996.6 2.6
18/03:30am 8.2 4.4 5.6 84 1.2 NW 15 17 8 9 996.3 996.4 2.6
18/03:00am 8.6 5.6 5.8 82 1.3 NW 11 15 6 8 996.1 996.2 2.6
18/02:30am 8.9 4.8 6.1 82 1.3 NW 17 22 9 12 996.7 996.8 2.4
18/02:00am 8.9 6.1 7.0 88 0.9 WNW 11 15 6 8 996.7 996.8 2.4
18/01:30am 9.1 6.7 7.2 88 0.9 W 9 13 5 7 996.5 996.6 1.8
18/01:00am 9.5 8.9 7.2 85 1.1 CALM 0 0 0 0 996.4 996.5 1.0
18/12:30am 9.9 7.7 7.8 87 1.0 NW 9 13 5 7 996.8 996.9 0.6
18/12:00am 10.5 7.4 7.4 81 1.5 NNW 13 19 7 10 996.9 997.0 0.0
 
Date/Time
EST
Temp
°C
App
Temp
°C
Dew
Point
°C
Rel
Hum
%
Delta-T
°C
Wind Press
QNH
hPa
Press
MSL
hPa
Rain since
9am
mm
Dir  Spd
km/h
Gust
km/h
Spd
kts
Gust
kts
17/11:30pm 10.8 7.2 6.8 76 1.9 NNW 15 20 8 11 997.0 997.1 0.0
17/11:00pm 11.3 6.7 6.5 72 2.3 N 20 28 11 15 997.7 997.7 0.0
17/10:30pm 11.2 7.1 6.1 71 2.4 NNE 17 28 9 15 997.7 997.7 0.0
17/10:00pm 11.2 8.2 5.9 70 2.5 NNE 11 19 6 10 998.5 998.5 0.0
17/09:30pm 11.5 7.3 5.7 67 2.7 NNE 17 22 9 12 999.1 999.1 0.0
17/09:00pm 11.5 6.9 5.5 66 2.8 NNE 19 26 10 14 999.5 999.5 0.0
17/08:30pm 11.3 7.4 5.5 67 2.7 NNE 15 24 8 13 999.5 999.5 0.0
17/08:00pm 11.7 7.0 5.0 63 3.1 N 19 30 10 16 999.6 999.6 0.0
17/07:30pm 11.9 7.0 5.0 62 3.2 N 20 28 11 15 999.8 999.8 0.0
17/07:00pm 12.1 7.1 4.7 60 3.4 N 20 35 11 19 1000.1 1000.1 0.0
17/06:30pm 12.5 7.4 3.9 56 3.9 N 20 28 11 15 1000.2 1000.2 0.0
17/06:00pm 13.3 7.7 3.6 52 4.4 N 22 32 12 17 1000.0 1000.0 0.0
17/05:30pm 12.7 8.9 3.9 55 4.0 N 13 19 7 10 1000.2 1000.2 0.0
17/05:00pm 13.7 9.4 3.0 48 4.8 NNW 15 20 8 11 1000.2 1000.2 0.0
17/04:30pm 14.2 9.4 2.6 45 5.1 NW 17 28 9 15 1000.6 1000.6 0.0
17/04:00pm 15.5 10.1 2.7 42 5.8 NW 20 30 11 16 1000.8 1000.8 0.0
17/03:30pm 15.8 9.2 1.9 39 6.2 NW 26 32 14 17 1000.9 1000.9 0.0
17/03:00pm 15.2 8.7 2.8 43 5.6 NW 26 33 14 18 1001.2 1001.2 0.0
17/02:30pm 16.2 9.2 2.2 39 6.3 NW 28 39 15 21 1001.4 1001.4 0.0
17/02:00pm 15.5 9.4 3.0 43 5.7 NW 24 33 13 18 1001.7 1001.7 0.0
17/01:30pm 14.6 8.0 2.2 43 5.5 NW 26 35 14 19 1002.1 1002.1 0.0
17/01:00pm 14.2 7.7 2.5 45 5.2 NNW 26 37 14 20 1002.8 1002.8 0.0
17/12:30pm 14.1 9.0 3.0 47 5.0 NNW 19 33 10 18 1003.4 1003.4 0.0
17/12:00pm 13.5 7.8 3.0 49 4.7 NNW 22 32 12 17 1004.0 1004.0 0.0
17/11:30am 12.7 6.9 2.4 49 4.5 NNW 22 33 12 18 1004.6 1004.6 0.0
17/11:00am 11.3 6.5 2.5 54 3.8 NNW 17 26 9 14 1005.0 1005.0 0.0
17/10:30am 10.6 5.9 3.0 59 3.3 NNW 17 22 9 12 1005.4 1005.4 0.0
17/10:00am 9.8 5.5 3.1 63 2.9 NNW 15 19 8 10 1005.8 1005.8 0.0
17/09:30am 8.9 4.8 2.5 64 2.7 N 13 20 7 11 1006.0 1006.0 0.0
17/09:00am 8.0 3.5 2.3 67 2.4 NNW 15 24 8 13 1006.3 1006.3 0.0
17/08:30am 7.7 2.8 1.9 67 2.4 NNW 17 22 9 12 1006.5 1006.5 0.0
17/08:00am 7.3 2.0 1.7 67 2.3 NNW 19 28 10 15 1006.5 1006.5 0.0

Latest Capital City Observations: Canberra | Sydney | Melbourne | Brisbane | Adelaide | Perth | Hobart | Darwin

Other Formats:

Comma delimited format used in spreadsheet applications
http://www.bom.gov.au/fwo/IDT60901/IDT60901.94975.axf

JavaScript Object Notation format (JSON) in row-major order
http://www.bom.gov.au/fwo/IDT60901/IDT60901.94975.json